sensor_id;sensor_type;location;lat;lon;timestamp;pressure;altitude;pressure_sealevel;temperature;humidity
68594;BME280;55563;52.416;13.548;2022-10-17T00:01:59;101833.44;;;12.26;100.00
68594;BME280;55563;52.416;13.548;2022-10-17T00:04:00;101837.44;;;12.29;100.00
68594;BME280;55563;52.416;13.548;2022-10-17T00:06:05;101841.19;;;12.33;100.00
68594;BME280;55563;52.416;13.548;2022-10-17T00:08:07;101843.03;;;12.32;100.00
68594;BME280;55563;52.416;13.548;2022-10-17T00:10:08;101842.25;;;12.32;100.00
68594;BME280;55563;52.416;13.548;2022-10-17T00:12:09;101845.91;;;12.31;100.00
68594;BME280;55563;52.416;13.548;2022-10-17T00:14:09;101844.72;;;12.21;100.00
68594;BME280;55563;52.416;13.548;2022-10-17T00:16:10;101846.72;;;12.31;100.00
68594;BME280;55563;52.416;13.548;2022-10-17T00:18:11;101840.72;;;12.36;100.00
68594;BME280;55563;52.416;13.548;2022-10-17T00:20:12;101837.28;;;12.35;100.00
68594;BME280;55563;52.416;13.548;2022-10-17T00:22:13;101839.41;;;12.38;100.00
68594;BME280;55563;52.416;13.548;2022-10-17T00:24:14;101830.00;;;12.42;100.00
68594;BME280;55563;52.416;13.548;2022-10-17T00:26:15;101828.50;;;12.46;100.00
68594;BME280;55563;52.416;13.548;2022-10-17T00:28:16;101820.09;;;12.49;100.00
68594;BME280;55563;52.416;13.548;2022-10-17T00:30:16;101818.78;;;12.52;100.00
68594;BME280;55563;52.416;13.548;2022-10-17T00:32:18;101821.19;;;12.53;100.00
68594;BME280;55563;52.416;13.548;2022-10-17T00:34:19;101820.47;;;12.58;100.00
68594;BME280;55563;52.416;13.548;2022-10-17T00:36:22;101820.16;;;12.54;100.00
68594;BME280;55563;52.416;13.548;2022-10-17T00:38:23;101831.06;;;12.41;100.00
68594;BME280;55563;52.416;13.548;2022-10-17T00:40:24;101834.63;;;12.35;100.00
68594;BME280;55563;52.416;13.548;2022-10-17T00:42:25;101835.13;;;12.32;100.00
68594;BME280;55563;52.416;13.548;2022-10-17T00:46:37;101829.44;;;12.40;100.00
68594;BME280;55563;52.416;13.548;2022-10-17T00:48:38;101826.50;;;12.37;100.00
68594;BME280;55563;52.416;13.548;2022-10-17T00:50:42;101818.25;;;12.33;100.00
68594;BME280;55563;52.416;13.548;2022-10-17T00:52:44;101820.34;;;12.31;100.00
68594;BME280;55563;52.416;13.548;2022-10-17T00:54:50;101835.38;;;12.31;100.00
68594;BME280;55563;52.416;13.548;2022-10-17T00:56:54;101833.25;;;12.33;100.00
68594;BME280;55563;52.416;13.548;2022-10-17T00:58:55;101834.56;;;12.30;100.00
68594;BME280;55563;52.416;13.548;2022-10-17T01:00:56;101829.06;;;12.32;100.00
68594;BME280;55563;52.416;13.548;2022-10-17T01:02:56;101825.34;;;12.33;100.00
68594;BME280;55563;52.416;13.548;2022-10-17T01:04:57;101833.75;;;12.30;100.00
68594;BME280;55563;52.416;13.548;2022-10-17T01:06:58;101834.25;;;12.27;100.00
68594;BME280;55563;52.416;13.548;2022-10-17T01:08:59;101834.00;;;12.28;100.00
68594;BME280;55563;52.416;13.548;2022-10-17T01:11:25;101839.34;;;12.16;100.00
68594;BME280;55563;52.416;13.548;2022-10-17T01:13:36;101837.84;;;12.20;100.00
68594;BME280;55563;52.416;13.548;2022-10-17T01:15:51;101833.59;;;12.19;100.00
68594;BME280;55563;52.416;13.548;2022-10-17T01:20:35;101834.00;;;12.45;100.00
68594;BME280;55563;52.416;13.548;2022-10-17T01:22:48;101829.03;;;12.48;100.00
68594;BME280;55563;52.416;13.548;2022-10-17T01:27:41;101818.09;;;12.40;100.00
68594;BME280;55563;52.416;13.548;2022-10-17T01:30:05;101816.19;;;12.35;100.00
68594;BME280;55563;52.416;13.548;2022-10-17T01:32:16;101811.72;;;12.36;100.00
68594;BME280;55563;52.416;13.548;2022-10-17T01:34:30;101812.19;;;12.33;100.00
68594;BME280;55563;52.416;13.548;2022-10-17T01:36:55;101799.56;;;12.35;100.00
68594;BME280;55563;52.416;13.548;2022-10-17T01:39:01;101812.75;;;12.35;100.00
68594;BME280;55563;52.416;13.548;2022-10-17T01:41:23;101809.72;;;12.26;100.00
68594;BME280;55563;52.416;13.548;2022-10-17T01:43:33;101803.72;;;12.31;100.00
68594;BME280;55563;52.416;13.548;2022-10-17T01:45:46;101803.66;;;12.26;100.00
68594;BME280;55563;52.416;13.548;2022-10-17T01:47:50;101798.53;;;12.19;100.00
68594;BME280;55563;52.416;13.548;2022-10-17T01:49:54;101795.34;;;12.17;100.00
68594;BME280;55563;52.416;13.548;2022-10-17T01:52:02;101797.19;;;12.16;100.00
68594;BME280;55563;52.416;13.548;2022-10-17T01:54:32;101794.53;;;12.16;100.00
68594;BME280;55563;52.416;13.548;2022-10-17T01:56:37;101798.78;;;12.17;100.00
68594;BME280;55563;52.416;13.548;2022-10-17T01:58:46;101795.59;;;12.32;100.00
68594;BME280;55563;52.416;13.548;2022-10-17T02:00:49;101793.97;;;12.31;100.00
68594;BME280;55563;52.416;13.548;2022-10-17T02:02:55;101805.00;;;12.28;100.00
68594;BME280;55563;52.416;13.548;2022-10-17T02:04:58;101800.53;;;12.29;100.00
68594;BME280;55563;52.416;13.548;2022-10-17T02:07:08;101801.09;;;12.14;100.00
68594;BME280;55563;52.416;13.548;2022-10-17T02:11:26;101812.09;;;11.94;100.00
68594;BME280;55563;52.416;13.548;2022-10-17T02:20:23;101813.78;;;12.00;100.00
68594;BME280;55563;52.416;13.548;2022-10-17T02:23:19;101806.75;;;11.89;100.00
68594;BME280;55563;52.416;13.548;2022-10-17T02:25:17;101809.84;;;11.86;100.00
68594;BME280;55563;52.416;13.548;2022-10-17T02:27:51;101807.00;;;12.04;100.00
68594;BME280;55563;52.416;13.548;2022-10-17T02:30:00;101813.38;;;12.25;100.00
68594;BME280;55563;52.416;13.548;2022-10-17T02:32:07;101807.09;;;12.26;100.00
68594;BME280;55563;52.416;13.548;2022-10-17T02:34:20;101807.81;;;12.21;100.00
68594;BME280;55563;52.416;13.548;2022-10-17T02:36:28;101801.91;;;11.98;100.00
68594;BME280;55563;52.416;13.548;2022-10-17T02:38:31;101798.50;;;11.86;100.00
68594;BME280;55563;52.416;13.548;2022-10-17T02:40:35;101800.69;;;11.89;100.00
68594;BME280;55563;52.416;13.548;2022-10-17T02:42:37;101803.91;;;12.07;100.00
68594;BME280;55563;52.416;13.548;2022-10-17T02:44:41;101794.38;;;12.06;100.00
68594;BME280;55563;52.416;13.548;2022-10-17T02:46:47;101800.78;;;11.94;100.00
68594;BME280;55563;52.416;13.548;2022-10-17T02:48:58;101796.13;;;12.01;100.00
68594;BME280;55563;52.416;13.548;2022-10-17T02:53:42;101794.63;;;12.21;100.00
68594;BME280;55563;52.416;13.548;2022-10-17T02:55:50;101787.69;;;12.32;100.00
68594;BME280;55563;52.416;13.548;2022-10-17T02:57:56;101791.16;;;12.38;100.00
68594;BME280;55563;52.416;13.548;2022-10-17T03:00:00;101787.56;;;12.44;100.00
68594;BME280;55563;52.416;13.548;2022-10-17T03:02:04;101785.16;;;12.42;100.00
68594;BME280;55563;52.416;13.548;2022-10-17T03:04:08;101791.31;;;12.48;100.00
68594;BME280;55563;52.416;13.548;2022-10-17T03:06:09;101790.44;;;12.42;100.00
68594;BME280;55563;52.416;13.548;2022-10-17T03:08:09;101792.84;;;12.44;100.00
68594;BME280;55563;52.416;13.548;2022-10-17T03:10:11;101791.00;;;12.44;100.00
68594;BME280;55563;52.416;13.548;2022-10-17T03:12:12;101790.78;;;12.46;100.00
68594;BME280;55563;52.416;13.548;2022-10-17T03:14:12;101796.13;;;12.51;100.00
68594;BME280;55563;52.416;13.548;2022-10-17T03:16:14;101784.47;;;12.47;100.00
68594;BME280;55563;52.416;13.548;2022-10-17T03:18:14;101788.38;;;12.44;100.00
68594;BME280;55563;52.416;13.548;2022-10-17T03:20:15;101790.28;;;12.49;100.00
68594;BME280;55563;52.416;13.548;2022-10-17T03:22:16;101787.34;;;12.45;100.00
68594;BME280;55563;52.416;13.548;2022-10-17T03:24:19;101787.50;;;12.39;100.00
68594;BME280;55563;52.416;13.548;2022-10-17T03:26:20;101790.84;;;12.34;100.00
68594;BME280;55563;52.416;13.548;2022-10-17T03:28:21;101793.56;;;12.39;100.00
68594;BME280;55563;52.416;13.548;2022-10-17T03:30:21;101788.59;;;12.43;100.00
68594;BME280;55563;52.416;13.548;2022-10-17T03:32:24;101795.00;;;12.47;100.00
68594;BME280;55563;52.416;13.548;2022-10-17T03:34:24;101792.13;;;12.48;100.00
68594;BME280;55563;52.416;13.548;2022-10-17T03:36:25;101787.03;;;12.42;100.00
68594;BME280;55563;52.416;13.548;2022-10-17T03:38:27;101786.38;;;12.51;100.00
68594;BME280;55563;52.416;13.548;2022-10-17T03:40:27;101777.00;;;12.60;100.00
68594;BME280;55563;52.416;13.548;2022-10-17T03:42:30;101773.28;;;12.61;100.00
68594;BME280;55563;52.416;13.548;2022-10-17T03:44:31;101773.28;;;12.61;100.00
68594;BME280;55563;52.416;13.548;2022-10-17T03:46:33;101775.91;;;12.56;100.00
68594;BME280;55563;52.416;13.548;2022-10-17T03:48:34;101772.03;;;12.64;100.00
68594;BME280;55563;52.416;13.548;2022-10-17T03:50:35;101772.25;;;12.62;100.00
68594;BME280;55563;52.416;13.548;2022-10-17T03:52:36;101777.59;;;12.67;100.00
68594;BME280;55563;52.416;13.548;2022-10-17T03:54:37;101775.69;;;12.63;100.00
68594;BME280;55563;52.416;13.548;2022-10-17T03:56:38;101774.84;;;12.57;100.00
68594;BME280;55563;52.416;13.548;2022-10-17T03:58:44;101773.06;;;12.63;100.00
68594;BME280;55563;52.416;13.548;2022-10-17T04:00:45;101767.72;;;12.58;100.00
68594;BME280;55563;52.416;13.548;2022-10-17T04:02:46;101771.22;;;12.63;100.00
68594;BME280;55563;52.416;13.548;2022-10-17T04:04:52;101774.66;;;12.64;100.00
68594;BME280;55563;52.416;13.548;2022-10-17T04:06:52;101769.16;;;12.65;100.00
68594;BME280;55563;52.416;13.548;2022-10-17T04:08:53;101773.13;;;12.68;100.00
68594;BME280;55563;52.416;13.548;2022-10-17T04:11:02;101768.91;;;12.67;100.00
68594;BME280;55563;52.416;13.548;2022-10-17T04:13:04;101761.78;;;12.67;100.00
68594;BME280;55563;52.416;13.548;2022-10-17T04:15:06;101763.63;;;12.67;100.00
68594;BME280;55563;52.416;13.548;2022-10-17T04:17:07;101754.97;;;12.72;100.00
68594;BME280;55563;52.416;13.548;2022-10-17T04:19:11;101748.41;;;12.74;100.00
68594;BME280;55563;52.416;13.548;2022-10-17T04:21:16;101748.91;;;12.71;100.00
68594;BME280;55563;52.416;13.548;2022-10-17T04:23:18;101741.78;;;12.72;100.00
68594;BME280;55563;52.416;13.548;2022-10-17T04:25:19;101743.63;;;12.71;100.00
68594;BME280;55563;52.416;13.548;2022-10-17T04:27:21;101750.44;;;12.67;100.00
68594;BME280;55563;52.416;13.548;2022-10-17T04:29:23;101759.66;;;12.64;100.00
68594;BME280;55563;52.416;13.548;2022-10-17T04:31:26;101752.19;;;12.61;100.00
68594;BME280;55563;52.416;13.548;2022-10-17T04:33:37;101759.34;;;12.61;100.00
68594;BME280;55563;52.416;13.548;2022-10-17T04:35:38;101763.00;;;12.60;100.00
68594;BME280;55563;52.416;13.548;2022-10-17T04:37:40;101758.47;;;12.55;100.00
68594;BME280;55563;52.416;13.548;2022-10-17T04:39:46;101762.88;;;12.50;100.00
68594;BME280;55563;52.416;13.548;2022-10-17T04:41:47;101765.28;;;12.51;100.00
68594;BME280;55563;52.416;13.548;2022-10-17T04:43:48;101761.84;;;12.51;100.00
68594;BME280;55563;52.416;13.548;2022-10-17T04:45:49;101756.16;;;12.42;100.00
68594;BME280;55563;52.416;13.548;2022-10-17T04:47:49;101756.72;;;12.44;100.00
68594;BME280;55563;52.416;13.548;2022-10-17T04:49:50;101764.78;;;12.38;100.00
68594;BME280;55563;52.416;13.548;2022-10-17T04:51:50;101767.25;;;12.22;100.00
68594;BME280;55563;52.416;13.548;2022-10-17T04:53:57;101754.78;;;12.18;100.00
68594;BME280;55563;52.416;13.548;2022-10-17T04:55:58;101752.38;;;12.16;100.00
68594;BME280;55563;52.416;13.548;2022-10-17T04:57:59;101755.31;;;12.20;100.00
68594;BME280;55563;52.416;13.548;2022-10-17T05:00:00;101758.34;;;12.29;100.00
68594;BME280;55563;52.416;13.548;2022-10-17T05:02:20;101762.44;;;12.19;100.00
68594;BME280;55563;52.416;13.548;2022-10-17T05:04:21;101756.03;;;12.32;100.00
68594;BME280;55563;52.416;13.548;2022-10-17T05:06:24;101754.75;;;12.35;100.00
68594;BME280;55563;52.416;13.548;2022-10-17T05:08:45;101759.06;;;12.24;100.00
68594;BME280;55563;52.416;13.548;2022-10-17T05:10:46;101757.50;;;12.06;100.00
68594;BME280;55563;52.416;13.548;2022-10-17T05:12:48;101757.66;;;12.16;100.00
68594;BME280;55563;52.416;13.548;2022-10-17T05:14:50;101757.72;;;12.05;100.00
68594;BME280;55563;52.416;13.548;2022-10-17T05:16:51;101764.28;;;12.02;100.00
68594;BME280;55563;52.416;13.548;2022-10-17T05:18:53;101758.44;;;12.00;100.00
68594;BME280;55563;52.416;13.548;2022-10-17T05:20:54;101755.50;;;11.97;100.00
68594;BME280;55563;52.416;13.548;2022-10-17T05:22:57;101768.44;;;11.98;100.00
68594;BME280;55563;52.416;13.548;2022-10-17T05:25:02;101770.50;;;11.96;100.00
68594;BME280;55563;52.416;13.548;2022-10-17T05:27:02;101771.63;;;12.00;100.00
68594;BME280;55563;52.416;13.548;2022-10-17T05:29:04;101779.06;;;12.03;100.00
68594;BME280;55563;52.416;13.548;2022-10-17T05:31:09;101772.19;;;12.02;100.00
68594;BME280;55563;52.416;13.548;2022-10-17T05:33:10;101771.69;;;12.05;100.00
68594;BME280;55563;52.416;13.548;2022-10-17T05:35:10;101775.47;;;11.93;100.00
68594;BME280;55563;52.416;13.548;2022-10-17T05:37:12;101769.06;;;12.05;100.00
68594;BME280;55563;52.416;13.548;2022-10-17T05:39:16;101766.19;;;11.90;100.00
68594;BME280;55563;52.416;13.548;2022-10-17T05:41:19;101770.50;;;11.96;100.00
68594;BME280;55563;52.416;13.548;2022-10-17T05:43:20;101765.31;;;12.18;100.00
68594;BME280;55563;52.416;13.548;2022-10-17T05:45:21;101760.59;;;12.20;100.00
68594;BME280;55563;52.416;13.548;2022-10-17T05:47:22;101755.56;;;12.18;100.00
68594;BME280;55563;52.416;13.548;2022-10-17T05:49:23;101757.41;;;12.18;100.00
68594;BME280;55563;52.416;13.548;2022-10-17T05:51:24;101758.09;;;12.13;100.00
68594;BME280;55563;52.416;13.548;2022-10-17T05:53:29;101769.28;;;12.04;100.00
68594;BME280;55563;52.416;13.548;2022-10-17T05:55:31;101767.09;;;12.12;100.00
68594;BME280;55563;52.416;13.548;2022-10-17T05:57:32;101768.66;;;12.13;100.00
68594;BME280;55563;52.416;13.548;2022-10-17T05:59:33;101769.63;;;12.24;100.00
68594;BME280;55563;52.416;13.548;2022-10-17T06:01:40;101775.44;;;12.26;100.00
68594;BME280;55563;52.416;13.548;2022-10-17T06:03:41;101775.75;;;12.30;100.00
68594;BME280;55563;52.416;13.548;2022-10-17T06:05:43;101778.78;;;12.38;100.00
68594;BME280;55563;52.416;13.548;2022-10-17T06:07:43;101780.63;;;12.38;100.00
68594;BME280;55563;52.416;13.548;2022-10-17T06:09:45;101782.53;;;12.42;100.00
68594;BME280;55563;52.416;13.548;2022-10-17T06:11:45;101785.97;;;12.43;100.00
68594;BME280;55563;52.416;13.548;2022-10-17T06:13:47;101784.38;;;12.42;100.00
68594;BME280;55563;52.416;13.548;2022-10-17T06:15:54;101791.56;;;12.46;100.00
68594;BME280;55563;52.416;13.548;2022-10-17T06:17:55;101797.16;;;12.50;100.00
68594;BME280;55563;52.416;13.548;2022-10-17T06:19:56;101800.16;;;12.58;100.00
68594;BME280;55563;52.416;13.548;2022-10-17T06:21:57;101806.31;;;12.64;100.00
68594;BME280;55563;52.416;13.548;2022-10-17T06:23:59;101805.66;;;12.74;100.00
68594;BME280;55563;52.416;13.548;2022-10-17T06:26:05;101806.53;;;12.79;100.00
68594;BME280;55563;52.416;13.548;2022-10-17T06:28:07;101808.75;;;12.87;100.00
68594;BME280;55563;52.416;13.548;2022-10-17T06:30:08;101806.25;;;12.81;100.00
68594;BME280;55563;52.416;13.548;2022-10-17T06:32:09;101809.84;;;12.91;100.00
68594;BME280;55563;52.416;13.548;2022-10-17T06:34:17;101813.28;;;12.92;100.00
68594;BME280;55563;52.416;13.548;2022-10-17T06:36:19;101815.31;;;12.85;100.00
68594;BME280;55563;52.416;13.548;2022-10-17T06:38:21;101817.28;;;12.94;100.00
68594;BME280;55563;52.416;13.548;2022-10-17T06:40:25;101822.13;;;13.02;100.00
68594;BME280;55563;52.416;13.548;2022-10-17T06:42:28;101820.81;;;13.05;100.00
68594;BME280;55563;52.416;13.548;2022-10-17T06:44:48;101829.41;;;13.12;100.00
68594;BME280;55563;52.416;13.548;2022-10-17T06:47:05;101821.03;;;13.20;100.00
68594;BME280;55563;52.416;13.548;2022-10-17T06:49:06;101823.38;;;13.17;100.00
68594;BME280;55563;52.416;13.548;2022-10-17T06:51:27;101821.34;;;13.24;100.00
68594;BME280;55563;52.416;13.548;2022-10-17T06:53:33;101826.44;;;13.30;100.00
68594;BME280;55563;52.416;13.548;2022-10-17T06:55:53;101830.53;;;13.43;100.00
68594;BME280;55563;52.416;13.548;2022-10-17T06:58:03;101834.31;;;13.47;100.00
68594;BME280;55563;52.416;13.548;2022-10-17T07:00:24;101834.72;;;13.61;100.00
68594;BME280;55563;52.416;13.548;2022-10-17T07:02:28;101837.28;;;13.56;100.00
68594;BME280;55563;52.416;13.548;2022-10-17T07:04:32;101828.16;;;13.68;100.00
68594;BME280;55563;52.416;13.548;2022-10-17T07:06:33;101833.47;;;13.68;100.00
68594;BME280;55563;52.416;13.548;2022-10-17T07:08:42;101842.19;;;13.69;100.00
68594;BME280;55563;52.416;13.548;2022-10-17T07:10:44;101835.09;;;13.74;100.00
68594;BME280;55563;52.416;13.548;2022-10-17T07:12:45;101829.91;;;13.84;100.00
68594;BME280;55563;52.416;13.548;2022-10-17T07:14:46;101835.53;;;13.93;100.00
68594;BME280;55563;52.416;13.548;2022-10-17T07:16:49;101831.84;;;13.94;100.00
68594;BME280;55563;52.416;13.548;2022-10-17T07:18:54;101837.72;;;14.01;100.00
68594;BME280;55563;52.416;13.548;2022-10-17T07:20:57;101834.91;;;14.13;100.00
68594;BME280;55563;52.416;13.548;2022-10-17T07:23:08;101846.88;;;14.20;100.00
68594;BME280;55563;52.416;13.548;2022-10-17T07:25:10;101842.38;;;14.21;100.00
68594;BME280;55563;52.416;13.548;2022-10-17T07:27:18;101841.91;;;14.24;100.00
68594;BME280;55563;52.416;13.548;2022-10-17T07:29:22;101842.94;;;14.23;100.00
68594;BME280;55563;52.416;13.548;2022-10-17T07:31:35;101848.63;;;14.36;100.00
68594;BME280;55563;52.416;13.548;2022-10-17T07:33:38;101854.66;;;14.32;100.00
68594;BME280;55563;52.416;13.548;2022-10-17T07:35:40;101844.25;;;14.52;100.00
68594;BME280;55563;52.416;13.548;2022-10-17T07:37:41;101844.47;;;14.46;100.00
68594;BME280;55563;52.416;13.548;2022-10-17T07:39:42;101858.72;;;14.45;100.00
68594;BME280;55563;52.416;13.548;2022-10-17T07:41:44;101853.75;;;14.53;100.00
68594;BME280;55563;52.416;13.548;2022-10-17T07:43:47;101853.03;;;14.63;100.00
68594;BME280;55563;52.416;13.548;2022-10-17T07:45:53;101857.25;;;14.59;100.00
68594;BME280;55563;52.416;13.548;2022-10-17T07:48:12;101856.50;;;14.68;100.00
68594;BME280;55563;52.416;13.548;2022-10-17T07:50:14;101856.84;;;14.82;100.00
68594;BME280;55563;52.416;13.548;2022-10-17T07:52:19;101856.34;;;14.85;100.00
68594;BME280;55563;52.416;13.548;2022-10-17T07:54:23;101854.41;;;15.22;100.00
68594;BME280;55563;52.416;13.548;2022-10-17T07:56:24;101851.63;;;15.64;100.00
68594;BME280;55563;52.416;13.548;2022-10-17T07:58:25;101861.69;;;15.52;100.00
68594;BME280;55563;52.416;13.548;2022-10-17T08:00:26;101852.91;;;15.47;100.00
68594;BME280;55563;52.416;13.548;2022-10-17T08:02:26;101855.00;;;15.50;100.00
68594;BME280;55563;52.416;13.548;2022-10-17T08:04:28;101857.94;;;15.43;100.00
68594;BME280;55563;52.416;13.548;2022-10-17T08:06:28;101851.03;;;15.42;100.00
68594;BME280;55563;52.416;13.548;2022-10-17T08:08:29;101858.44;;;15.40;100.00
68594;BME280;55563;52.416;13.548;2022-10-17T08:10:30;101850.75;;;15.39;100.00
68594;BME280;55563;52.416;13.548;2022-10-17T08:12:31;101857.41;;;15.46;100.00
68594;BME280;55563;52.416;13.548;2022-10-17T08:14:34;101863.03;;;15.60;100.00
68594;BME280;55563;52.416;13.548;2022-10-17T08:16:35;101860.31;;;15.50;100.00
68594;BME280;55563;52.416;13.548;2022-10-17T08:18:38;101858.28;;;15.62;100.00
68594;BME280;55563;52.416;13.548;2022-10-17T08:20:40;101859.88;;;15.73;100.00
68594;BME280;55563;52.416;13.548;2022-10-17T08:22:41;101863.31;;;15.74;100.00
68594;BME280;55563;52.416;13.548;2022-10-17T08:24:42;101860.97;;;15.77;100.00
68594;BME280;55563;52.416;13.548;2022-10-17T08:26:45;101853.78;;;15.83;100.00
68594;BME280;55563;52.416;13.548;2022-10-17T08:28:55;101861.25;;;15.91;100.00
68594;BME280;55563;52.416;13.548;2022-10-17T09:29:32;101857.56;;;18.49;100.00
68594;BME280;55563;52.416;13.548;2022-10-17T09:31:39;101848.03;;;18.43;100.00
68594;BME280;55563;52.416;13.548;2022-10-17T09:33:43;101847.44;;;18.51;100.00
68594;BME280;55563;52.416;13.548;2022-10-17T09:35:46;101850.78;;;18.61;100.00
68594;BME280;55563;52.416;13.548;2022-10-17T09:37:48;101841.78;;;18.81;100.00
68594;BME280;55563;52.416;13.548;2022-10-17T09:39:50;101847.13;;;18.81;100.00
68594;BME280;55563;52.416;13.548;2022-10-17T09:41:53;101841.84;;;18.76;100.00
68594;BME280;55563;52.416;13.548;2022-10-17T09:43:55;101843.59;;;18.86;100.00
68594;BME280;55563;52.416;13.548;2022-10-17T09:50:30;101840.59;;;19.35;100.00
68594;BME280;55563;52.416;13.548;2022-10-17T09:52:38;101843.34;;;19.30;99.72
68594;BME280;55563;52.416;13.548;2022-10-17T09:54:44;101833.72;;;19.52;98.18
68594;BME280;55563;52.416;13.548;2022-10-17T09:57:04;101830.47;;;19.55;98.63
68594;BME280;55563;52.416;13.548;2022-10-17T09:59:05;101836.66;;;19.70;98.26
68594;BME280;55563;52.416;13.548;2022-10-17T10:01:24;101837.72;;;19.87;96.95
68594;BME280;55563;52.416;13.548;2022-10-17T10:03:25;101840.06;;;20.08;96.44
68594;BME280;55563;52.416;13.548;2022-10-17T10:05:26;101833.94;;;20.39;94.61
68594;BME280;55563;52.416;13.548;2022-10-17T10:07:29;101829.22;;;20.50;93.95
68594;BME280;55563;52.416;13.548;2022-10-17T10:09:32;101826.25;;;20.52;93.76
68594;BME280;55563;52.416;13.548;2022-10-17T10:11:51;101827.63;;;20.63;91.87
68594;BME280;55563;52.416;13.548;2022-10-17T10:13:53;101832.78;;;20.59;92.41
68594;BME280;55563;52.416;13.548;2022-10-17T10:16:12;101826.63;;;20.72;90.83
68594;BME280;55563;52.416;13.548;2022-10-17T10:18:33;101839.31;;;20.67;91.45
68594;BME280;55563;52.416;13.548;2022-10-17T10:20:36;101839.50;;;20.84;90.29
68594;BME280;55563;52.416;13.548;2022-10-17T10:22:37;101839.50;;;20.84;89.67
68594;BME280;55563;52.416;13.548;2022-10-17T10:24:38;101838.69;;;20.97;89.38
68594;BME280;55563;52.416;13.548;2022-10-17T10:26:43;101840.88;;;21.09;88.46
68594;BME280;55563;52.416;13.548;2022-10-17T10:28:54;101838.94;;;21.50;87.51
68594;BME280;55563;52.416;13.548;2022-10-17T10:30:59;101826.88;;;21.39;89.06
68594;BME280;55563;52.416;13.548;2022-10-17T10:33:02;101835.78;;;21.35;87.32
68594;BME280;55563;52.416;13.548;2022-10-17T10:35:06;101832.59;;;21.46;86.51
68594;BME280;55563;52.416;13.548;2022-10-17T10:37:25;101837.72;;;21.56;86.30
68594;BME280;55563;52.416;13.548;2022-10-17T10:39:33;101828.50;;;21.62;88.07
68594;BME280;55563;52.416;13.548;2022-10-17T10:41:44;101827.22;;;21.60;87.79
68594;BME280;55563;52.416;13.548;2022-10-17T10:43:48;101828.28;;;21.59;87.01
68594;BME280;55563;52.416;13.548;2022-10-17T10:45:50;101829.34;;;21.71;87.04
68594;BME280;55563;52.416;13.548;2022-10-17T10:47:54;101824.69;;;21.99;85.49
68594;BME280;55563;52.416;13.548;2022-10-17T10:50:20;101821.00;;;22.17;84.86
68594;BME280;55563;52.416;13.548;2022-10-17T10:52:33;101824.22;;;22.28;86.00
68594;BME280;55563;52.416;13.548;2022-10-17T10:54:42;101826.84;;;22.20;85.11
68594;BME280;55563;52.416;13.548;2022-10-17T10:56:49;101826.22;;;22.23;84.18
68594;BME280;55563;52.416;13.548;2022-10-17T10:59:14;101831.47;;;22.28;83.57
68594;BME280;55563;52.416;13.548;2022-10-17T11:06:32;101823.72;;;22.66;79.91
68594;BME280;55563;52.416;13.548;2022-10-17T11:09:18;101822.00;;;22.70;80.78
68594;BME280;55563;52.416;13.548;2022-10-17T11:11:39;101826.97;;;22.76;80.60
68594;BME280;55563;52.416;13.548;2022-10-17T11:13:47;101822.66;;;22.67;78.81
68594;BME280;55563;52.416;13.548;2022-10-17T11:18:06;101816.56;;;22.83;77.29
68594;BME280;55563;52.416;13.548;2022-10-17T11:20:14;101812.31;;;22.82;77.98
68594;BME280;55563;52.416;13.548;2022-10-17T11:22:25;101805.69;;;22.88;77.22
68594;BME280;55563;52.416;13.548;2022-10-17T11:24:36;101799.06;;;22.77;76.94
68594;BME280;55563;52.416;13.548;2022-10-17T11:26:44;101802.06;;;22.84;78.04
68594;BME280;55563;52.416;13.548;2022-10-17T11:28:45;101807.44;;;22.93;77.36
68594;BME280;55563;52.416;13.548;2022-10-17T11:30:58;101802.84;;;22.85;78.81
68594;BME280;55563;52.416;13.548;2022-10-17T11:33:02;101799.88;;;23.03;78.44
68594;BME280;55563;52.416;13.548;2022-10-17T11:35:14;101798.63;;;23.10;78.46
68594;BME280;55563;52.416;13.548;2022-10-17T11:37:21;101788.06;;;23.13;78.79
68594;BME280;55563;52.416;13.548;2022-10-17T11:39:43;101796.75;;;23.01;78.03
68594;BME280;55563;52.416;13.548;2022-10-17T11:42:01;101788.34;;;22.94;77.58
68594;BME280;55563;52.416;13.548;2022-10-17T11:44:34;101794.81;;;22.93;79.21
68594;BME280;55563;52.416;13.548;2022-10-17T11:46:36;101797.66;;;22.88;79.55
68594;BME280;55563;52.416;13.548;2022-10-17T11:48:41;101800.03;;;22.90;78.67
68594;BME280;55563;52.416;13.548;2022-10-17T11:50:46;101794.16;;;22.88;78.09
68594;BME280;55563;52.416;13.548;2022-10-17T11:52:53;101787.41;;;22.90;78.41
68594;BME280;55563;52.416;13.548;2022-10-17T11:55:01;101790.72;;;22.96;78.43
68594;BME280;55563;52.416;13.548;2022-10-17T11:59:56;101789.50;;;23.02;78.91
68594;BME280;55563;52.416;13.548;2022-10-17T12:02:06;101784.44;;;23.09;77.16
68594;BME280;55563;52.416;13.548;2022-10-17T12:04:21;101786.47;;;23.03;78.79
68594;BME280;55563;52.416;13.548;2022-10-17T12:06:47;101781.75;;;23.09;79.53
68594;BME280;55563;52.416;13.548;2022-10-17T12:09:06;101787.41;;;22.99;77.95
68594;BME280;55563;52.416;13.548;2022-10-17T12:11:21;101778.44;;;23.03;78.00
68594;BME280;55563;52.416;13.548;2022-10-17T12:15:38;101784.75;;;23.33;77.56
68594;BME280;55563;52.416;13.548;2022-10-17T12:17:40;101781.44;;;23.36;78.07